sensor_id;sensor_type;location;lat;lon;timestamp;P1;durP1;ratioP1;P2;durP2;ratioP2
57341;SDS011;43175;51.002;18.316;2022-12-19T00:01:02;60.90;;;21.70;;
57341;SDS011;43175;51.002;18.316;2022-12-19T00:03:33;62.30;;;22.00;;
57341;SDS011;43175;51.002;18.316;2022-12-19T00:06:02;63.60;;;22.30;;
57341;SDS011;43175;51.002;18.316;2022-12-19T00:08:31;72.70;;;23.90;;
57341;SDS011;43175;51.002;18.316;2022-12-19T00:10:57;59.80;;;19.90;;
57341;SDS011;43175;51.002;18.316;2022-12-19T00:13:25;52.20;;;18.50;;
57341;SDS011;43175;51.002;18.316;2022-12-19T00:15:51;64.10;;;22.30;;
57341;SDS011;43175;51.002;18.316;2022-12-19T00:18:17;68.90;;;21.60;;
57341;SDS011;43175;51.002;18.316;2022-12-19T00:20:43;64.90;;;21.00;;
57341;SDS011;43175;51.002;18.316;2022-12-19T00:23:09;57.60;;;19.90;;
57341;SDS011;43175;51.002;18.316;2022-12-19T00:25:34;54.40;;;18.60;;
57341;SDS011;43175;51.002;18.316;2022-12-19T00:28:00;47.50;;;18.50;;
57341;SDS011;43175;51.002;18.316;2022-12-19T00:30:25;54.40;;;19.10;;
57341;SDS011;43175;51.002;18.316;2022-12-19T00:32:51;64.60;;;21.20;;
57341;SDS011;43175;51.002;18.316;2022-12-19T00:35:16;40.10;;;14.10;;
57341;SDS011;43175;51.002;18.316;2022-12-19T00:37:42;72.80;;;23.40;;
57341;SDS011;43175;51.002;18.316;2022-12-19T00:40:08;53.50;;;20.30;;
57341;SDS011;43175;51.002;18.316;2022-12-19T00:42:34;56.80;;;19.70;;
57341;SDS011;43175;51.002;18.316;2022-12-19T00:44:59;73.20;;;26.40;;
57341;SDS011;43175;51.002;18.316;2022-12-19T00:47:25;74.30;;;26.60;;
57341;SDS011;43175;51.002;18.316;2022-12-19T00:49:51;76.30;;;25.60;;
57341;SDS011;43175;51.002;18.316;2022-12-19T00:52:17;87.10;;;32.40;;
57341;SDS011;43175;51.002;18.316;2022-12-19T00:54:42;81.50;;;28.00;;
57341;SDS011;43175;51.002;18.316;2022-12-19T00:57:08;55.50;;;22.00;;
57341;SDS011;43175;51.002;18.316;2022-12-19T00:59:33;65.40;;;22.00;;
57341;SDS011;43175;51.002;18.316;2022-12-19T01:01:59;37.10;;;14.60;;
57341;SDS011;43175;51.002;18.316;2022-12-19T01:04:24;63.00;;;23.60;;
57341;SDS011;43175;51.002;18.316;2022-12-19T01:06:50;73.40;;;27.50;;
57341;SDS011;43175;51.002;18.316;2022-12-19T01:09:16;64.20;;;24.20;;
57341;SDS011;43175;51.002;18.316;2022-12-19T01:11:41;57.70;;;22.00;;
57341;SDS011;43175;51.002;18.316;2022-12-19T01:14:25;69.50;;;23.10;;
57341;SDS011;43175;51.002;18.316;2022-12-19T01:16:51;65.30;;;21.20;;
57341;SDS011;43175;51.002;18.316;2022-12-19T01:19:16;51.20;;;17.80;;
57341;SDS011;43175;51.002;18.316;2022-12-19T01:21:42;61.80;;;20.00;;
57341;SDS011;43175;51.002;18.316;2022-12-19T01:24:07;51.60;;;18.00;;
57341;SDS011;43175;51.002;18.316;2022-12-19T01:26:32;51.60;;;18.70;;
57341;SDS011;43175;51.002;18.316;2022-12-19T01:28:58;50.50;;;17.90;;
57341;SDS011;43175;51.002;18.316;2022-12-19T01:31:24;55.70;;;21.80;;
57341;SDS011;43175;51.002;18.316;2022-12-19T01:33:49;47.90;;;17.90;;
57341;SDS011;43175;51.002;18.316;2022-12-19T01:36:17;48.80;;;18.90;;
57341;SDS011;43175;51.002;18.316;2022-12-19T01:38:43;53.70;;;19.90;;
57341;SDS011;43175;51.002;18.316;2022-12-19T01:41:09;52.90;;;20.40;;
57341;SDS011;43175;51.002;18.316;2022-12-19T01:46:29;52.30;;;17.70;;
57341;SDS011;43175;51.002;18.316;2022-12-19T01:49:00;52.40;;;20.60;;
57341;SDS011;43175;51.002;18.316;2022-12-19T01:51:27;51.30;;;18.70;;
57341;SDS011;43175;51.002;18.316;2022-12-19T01:54:00;55.70;;;19.20;;
57341;SDS011;43175;51.002;18.316;2022-12-19T01:56:30;54.90;;;18.60;;
57341;SDS011;43175;51.002;18.316;2022-12-19T01:58:58;56.80;;;20.40;;
57341;SDS011;43175;51.002;18.316;2022-12-19T02:01:25;59.40;;;19.50;;
57341;SDS011;43175;51.002;18.316;2022-12-19T02:03:53;57.40;;;19.90;;
57341;SDS011;43175;51.002;18.316;2022-12-19T02:06:19;57.10;;;20.10;;
57341;SDS011;43175;51.002;18.316;2022-12-19T02:08:46;47.00;;;17.40;;
57341;SDS011;43175;51.002;18.316;2022-12-19T02:11:12;56.00;;;19.00;;
57341;SDS011;43175;51.002;18.316;2022-12-19T02:13:38;50.90;;;20.00;;
57341;SDS011;43175;51.002;18.316;2022-12-19T02:16:08;51.60;;;17.40;;
57341;SDS011;43175;51.002;18.316;2022-12-19T02:18:57;48.70;;;18.60;;
57341;SDS011;43175;51.002;18.316;2022-12-19T02:21:34;45.10;;;17.40;;
57341;SDS011;43175;51.002;18.316;2022-12-19T02:35:33;49.00;;;18.20;;
57341;SDS011;43175;51.002;18.316;2022-12-19T02:38:08;52.40;;;18.90;;
57341;SDS011;43175;51.002;18.316;2022-12-19T02:40:55;50.90;;;18.40;;
57341;SDS011;43175;51.002;18.316;2022-12-19T02:43:24;45.40;;;17.30;;
57341;SDS011;43175;51.002;18.316;2022-12-19T02:45:53;50.40;;;18.80;;
57341;SDS011;43175;51.002;18.316;2022-12-19T02:48:20;50.70;;;19.40;;
57341;SDS011;43175;51.002;18.316;2022-12-19T02:50:46;54.40;;;20.00;;
57341;SDS011;43175;51.002;18.316;2022-12-19T02:53:14;46.60;;;16.50;;
57341;SDS011;43175;51.002;18.316;2022-12-19T02:58:25;48.10;;;16.20;;
57341;SDS011;43175;51.002;18.316;2022-12-19T03:01:07;52.40;;;18.10;;
57341;SDS011;43175;51.002;18.316;2022-12-19T03:03:37;52.70;;;20.00;;
57341;SDS011;43175;51.002;18.316;2022-12-19T03:11:49;56.80;;;18.40;;
57341;SDS011;43175;51.002;18.316;2022-12-19T03:14:21;54.60;;;19.40;;
57341;SDS011;43175;51.002;18.316;2022-12-19T03:16:48;57.00;;;18.80;;
57341;SDS011;43175;51.002;18.316;2022-12-19T03:19:16;50.60;;;18.90;;
57341;SDS011;43175;51.002;18.316;2022-12-19T03:21:45;46.20;;;17.60;;
57341;SDS011;43175;51.002;18.316;2022-12-19T03:24:13;50.90;;;19.30;;
57341;SDS011;43175;51.002;18.316;2022-12-19T03:26:44;46.80;;;17.10;;
57341;SDS011;43175;51.002;18.316;2022-12-19T03:29:20;53.00;;;19.10;;
57341;SDS011;43175;51.002;18.316;2022-12-19T03:31:50;43.40;;;17.30;;
57341;SDS011;43175;51.002;18.316;2022-12-19T03:34:20;53.30;;;20.40;;
57341;SDS011;43175;51.002;18.316;2022-12-19T03:36:55;52.00;;;18.40;;
57341;SDS011;43175;51.002;18.316;2022-12-19T03:39:25;45.30;;;17.20;;
57341;SDS011;43175;51.002;18.316;2022-12-19T03:41:52;55.60;;;19.40;;
57341;SDS011;43175;51.002;18.316;2022-12-19T03:44:38;49.00;;;18.10;;
57341;SDS011;43175;51.002;18.316;2022-12-19T03:47:16;48.80;;;17.40;;
57341;SDS011;43175;51.002;18.316;2022-12-19T03:49:48;45.70;;;18.60;;
57341;SDS011;43175;51.002;18.316;2022-12-19T03:52:23;44.60;;;17.60;;
57341;SDS011;43175;51.002;18.316;2022-12-19T03:57:38;47.10;;;17.70;;
57341;SDS011;43175;51.002;18.316;2022-12-19T04:00:08;42.90;;;17.60;;
57341;SDS011;43175;51.002;18.316;2022-12-19T04:02:37;45.50;;;18.50;;
57341;SDS011;43175;51.002;18.316;2022-12-19T04:05:08;45.70;;;18.00;;
57341;SDS011;43175;51.002;18.316;2022-12-19T04:07:35;45.20;;;18.50;;
57341;SDS011;43175;51.002;18.316;2022-12-19T04:10:02;51.00;;;19.10;;
57341;SDS011;43175;51.002;18.316;2022-12-19T04:12:32;51.70;;;19.10;;
57341;SDS011;43175;51.002;18.316;2022-12-19T04:14:58;46.60;;;18.60;;
57341;SDS011;43175;51.002;18.316;2022-12-19T04:20:10;52.00;;;19.30;;
57341;SDS011;43175;51.002;18.316;2022-12-19T04:22:55;51.50;;;19.20;;
57341;SDS011;43175;51.002;18.316;2022-12-19T04:25:29;45.30;;;18.20;;
57341;SDS011;43175;51.002;18.316;2022-12-19T04:27:58;47.80;;;19.20;;
57341;SDS011;43175;51.002;18.316;2022-12-19T04:30:25;47.60;;;19.20;;
57341;SDS011;43175;51.002;18.316;2022-12-19T04:32:51;46.40;;;17.80;;
57341;SDS011;43175;51.002;18.316;2022-12-19T04:35:17;46.80;;;18.50;;
57341;SDS011;43175;51.002;18.316;2022-12-19T04:37:47;44.80;;;17.20;;
57341;SDS011;43175;51.002;18.316;2022-12-19T04:40:13;48.30;;;18.90;;
57341;SDS011;43175;51.002;18.316;2022-12-19T04:42:41;50.00;;;18.50;;
57341;SDS011;43175;51.002;18.316;2022-12-19T04:45:06;46.50;;;19.00;;
57341;SDS011;43175;51.002;18.316;2022-12-19T04:47:32;55.90;;;20.50;;
57341;SDS011;43175;51.002;18.316;2022-12-19T04:49:58;49.70;;;21.30;;
57341;SDS011;43175;51.002;18.316;2022-12-19T04:52:23;47.80;;;19.00;;
57341;SDS011;43175;51.002;18.316;2022-12-19T04:54:49;53.00;;;20.50;;
57341;SDS011;43175;51.002;18.316;2022-12-19T04:57:14;51.50;;;19.50;;
57341;SDS011;43175;51.002;18.316;2022-12-19T04:59:39;53.00;;;19.90;;
57341;SDS011;43175;51.002;18.316;2022-12-19T05:02:05;38.10;;;16.10;;
57341;SDS011;43175;51.002;18.316;2022-12-19T05:04:30;49.50;;;18.80;;
57341;SDS011;43175;51.002;18.316;2022-12-19T05:06:56;45.20;;;17.30;;
57341;SDS011;43175;51.002;18.316;2022-12-19T05:09:21;47.40;;;18.90;;
57341;SDS011;43175;51.002;18.316;2022-12-19T05:11:47;47.30;;;18.40;;
57341;SDS011;43175;51.002;18.316;2022-12-19T05:14:12;58.40;;;20.30;;
57341;SDS011;43175;51.002;18.316;2022-12-19T05:16:38;48.50;;;19.00;;
57341;SDS011;43175;51.002;18.316;2022-12-19T05:19:03;46.80;;;18.00;;
57341;SDS011;43175;51.002;18.316;2022-12-19T05:21:29;45.20;;;17.90;;
57341;SDS011;43175;51.002;18.316;2022-12-19T05:23:54;39.00;;;15.90;;
57341;SDS011;43175;51.002;18.316;2022-12-19T05:26:19;43.90;;;17.50;;
57341;SDS011;43175;51.002;18.316;2022-12-19T05:28:45;42.50;;;16.60;;
57341;SDS011;43175;51.002;18.316;2022-12-19T05:31:12;36.40;;;15.60;;
57341;SDS011;43175;51.002;18.316;2022-12-19T05:33:39;38.50;;;14.30;;
57341;SDS011;43175;51.002;18.316;2022-12-19T05:36:06;40.70;;;16.70;;
57341;SDS011;43175;51.002;18.316;2022-12-19T05:38:32;42.70;;;17.30;;
57341;SDS011;43175;51.002;18.316;2022-12-19T05:40:59;39.60;;;16.00;;
57341;SDS011;43175;51.002;18.316;2022-12-19T05:43:24;41.60;;;16.30;;
57341;SDS011;43175;51.002;18.316;2022-12-19T05:45:50;44.10;;;17.50;;
57341;SDS011;43175;51.002;18.316;2022-12-19T05:48:16;32.60;;;13.90;;
57341;SDS011;43175;51.002;18.316;2022-12-19T05:50:45;38.30;;;15.00;;
57341;SDS011;43175;51.002;18.316;2022-12-19T05:53:12;42.10;;;15.90;;
57341;SDS011;43175;51.002;18.316;2022-12-19T05:55:37;36.80;;;15.80;;
57341;SDS011;43175;51.002;18.316;2022-12-19T05:58:03;39.50;;;15.90;;
57341;SDS011;43175;51.002;18.316;2022-12-19T06:00:29;36.20;;;14.30;;
57341;SDS011;43175;51.002;18.316;2022-12-19T06:02:54;37.80;;;15.90;;
57341;SDS011;43175;51.002;18.316;2022-12-19T06:05:20;37.60;;;15.20;;
57341;SDS011;43175;51.002;18.316;2022-12-19T06:07:45;39.10;;;15.40;;
57341;SDS011;43175;51.002;18.316;2022-12-19T06:10:11;40.30;;;16.40;;
57341;SDS011;43175;51.002;18.316;2022-12-19T06:12:36;38.20;;;15.30;;
57341;SDS011;43175;51.002;18.316;2022-12-19T06:15:02;38.20;;;15.50;;
57341;SDS011;43175;51.002;18.316;2022-12-19T06:17:27;35.20;;;14.40;;
57341;SDS011;43175;51.002;18.316;2022-12-19T06:19:53;37.20;;;14.80;;
57341;SDS011;43175;51.002;18.316;2022-12-19T06:22:19;34.70;;;14.20;;
57341;SDS011;43175;51.002;18.316;2022-12-19T06:24:44;34.80;;;14.00;;
57341;SDS011;43175;51.002;18.316;2022-12-19T06:27:09;39.00;;;14.90;;
57341;SDS011;43175;51.002;18.316;2022-12-19T06:29:35;38.50;;;15.10;;
57341;SDS011;43175;51.002;18.316;2022-12-19T06:32:00;38.60;;;15.60;;
57341;SDS011;43175;51.002;18.316;2022-12-19T06:34:26;35.80;;;14.80;;
57341;SDS011;43175;51.002;18.316;2022-12-19T06:36:51;35.20;;;15.40;;
57341;SDS011;43175;51.002;18.316;2022-12-19T06:39:16;40.00;;;15.70;;
57341;SDS011;43175;51.002;18.316;2022-12-19T06:41:42;36.90;;;15.30;;
57341;SDS011;43175;51.002;18.316;2022-12-19T06:44:26;37.10;;;14.70;;
57341;SDS011;43175;51.002;18.316;2022-12-19T06:46:52;36.60;;;14.60;;
57341;SDS011;43175;51.002;18.316;2022-12-19T06:49:18;33.80;;;14.50;;
57341;SDS011;43175;51.002;18.316;2022-12-19T06:51:44;38.90;;;14.20;;
57341;SDS011;43175;51.002;18.316;2022-12-19T06:54:10;35.50;;;13.50;;
57341;SDS011;43175;51.002;18.316;2022-12-19T06:56:37;32.80;;;13.10;;
57341;SDS011;43175;51.002;18.316;2022-12-19T06:59:04;34.20;;;14.70;;
57341;SDS011;43175;51.002;18.316;2022-12-19T07:04:02;34.40;;;12.60;;
57341;SDS011;43175;51.002;18.316;2022-12-19T07:06:27;38.00;;;14.40;;
57341;SDS011;43175;51.002;18.316;2022-12-19T07:08:53;36.50;;;15.60;;
57341;SDS011;43175;51.002;18.316;2022-12-19T07:11:19;36.70;;;14.60;;
57341;SDS011;43175;51.002;18.316;2022-12-19T07:13:44;36.00;;;15.00;;
57341;SDS011;43175;51.002;18.316;2022-12-19T07:16:10;33.30;;;13.90;;
57341;SDS011;43175;51.002;18.316;2022-12-19T07:18:36;36.90;;;15.10;;
57341;SDS011;43175;51.002;18.316;2022-12-19T07:21:03;32.50;;;13.20;;
57341;SDS011;43175;51.002;18.316;2022-12-19T07:23:29;37.00;;;14.90;;
57341;SDS011;43175;51.002;18.316;2022-12-19T07:25:55;35.80;;;14.50;;
57341;SDS011;43175;51.002;18.316;2022-12-19T07:28:21;34.50;;;14.50;;
57341;SDS011;43175;51.002;18.316;2022-12-19T07:30:47;38.80;;;15.00;;
57341;SDS011;43175;51.002;18.316;2022-12-19T07:33:12;38.50;;;14.70;;
57341;SDS011;43175;51.002;18.316;2022-12-19T07:35:38;32.40;;;13.70;;
57341;SDS011;43175;51.002;18.316;2022-12-19T07:38:04;32.40;;;14.70;;
57341;SDS011;43175;51.002;18.316;2022-12-19T07:40:30;39.30;;;14.50;;
57341;SDS011;43175;51.002;18.316;2022-12-19T07:43:03;36.90;;;15.60;;
57341;SDS011;43175;51.002;18.316;2022-12-19T07:45:29;36.00;;;14.40;;
57341;SDS011;43175;51.002;18.316;2022-12-19T07:47:58;40.40;;;16.40;;
57341;SDS011;43175;51.002;18.316;2022-12-19T07:50:24;31.00;;;13.00;;
57341;SDS011;43175;51.002;18.316;2022-12-19T07:52:50;36.20;;;15.00;;
57341;SDS011;43175;51.002;18.316;2022-12-19T07:55:15;39.00;;;15.10;;
57341;SDS011;43175;51.002;18.316;2022-12-19T07:57:41;34.80;;;13.90;;
57341;SDS011;43175;51.002;18.316;2022-12-19T08:00:06;36.50;;;14.90;;
57341;SDS011;43175;51.002;18.316;2022-12-19T08:02:33;36.50;;;14.40;;
57341;SDS011;43175;51.002;18.316;2022-12-19T08:07:45;34.80;;;14.30;;
57341;SDS011;43175;51.002;18.316;2022-12-19T08:10:11;33.70;;;14.40;;
57341;SDS011;43175;51.002;18.316;2022-12-19T08:12:39;38.90;;;15.10;;
57341;SDS011;43175;51.002;18.316;2022-12-19T08:15:04;36.30;;;15.10;;
57341;SDS011;43175;51.002;18.316;2022-12-19T08:17:31;34.90;;;14.90;;
57341;SDS011;43175;51.002;18.316;2022-12-19T08:19:56;36.90;;;14.60;;
57341;SDS011;43175;51.002;18.316;2022-12-19T08:22:22;35.50;;;14.60;;
57341;SDS011;43175;51.002;18.316;2022-12-19T08:24:47;33.20;;;12.70;;
57341;SDS011;43175;51.002;18.316;2022-12-19T08:27:14;36.40;;;15.00;;
57341;SDS011;43175;51.002;18.316;2022-12-19T08:29:40;39.00;;;16.80;;
57341;SDS011;43175;51.002;18.316;2022-12-19T08:32:05;41.80;;;17.60;;
57341;SDS011;43175;51.002;18.316;2022-12-19T08:34:31;39.50;;;15.70;;
57341;SDS011;43175;51.002;18.316;2022-12-19T08:36:57;43.30;;;17.10;;
57341;SDS011;43175;51.002;18.316;2022-12-19T08:39:22;39.60;;;15.90;;
57341;SDS011;43175;51.002;18.316;2022-12-19T08:41:48;34.00;;;15.30;;
57341;SDS011;43175;51.002;18.316;2022-12-19T08:44:13;43.20;;;17.60;;
57341;SDS011;43175;51.002;18.316;2022-12-19T08:46:39;36.50;;;15.40;;
57341;SDS011;43175;51.002;18.316;2022-12-19T08:49:05;40.30;;;17.30;;
57341;SDS011;43175;51.002;18.316;2022-12-19T08:51:30;40.10;;;17.10;;
57341;SDS011;43175;51.002;18.316;2022-12-19T08:53:56;39.60;;;16.00;;
57341;SDS011;43175;51.002;18.316;2022-12-19T08:56:21;38.00;;;16.80;;
57341;SDS011;43175;51.002;18.316;2022-12-19T08:58:47;40.70;;;17.30;;
57341;SDS011;43175;51.002;18.316;2022-12-19T09:01:16;39.30;;;16.50;;
57341;SDS011;43175;51.002;18.316;2022-12-19T09:03:43;35.50;;;15.40;;
57341;SDS011;43175;51.002;18.316;2022-12-19T09:06:10;37.10;;;15.20;;
57341;SDS011;43175;51.002;18.316;2022-12-19T09:08:37;37.00;;;17.60;;
57341;SDS011;43175;51.002;18.316;2022-12-19T09:11:10;39.80;;;16.90;;
57341;SDS011;43175;51.002;18.316;2022-12-19T09:13:40;37.20;;;15.90;;
57341;SDS011;43175;51.002;18.316;2022-12-19T09:16:08;38.20;;;16.70;;
57341;SDS011;43175;51.002;18.316;2022-12-19T09:18:34;40.60;;;18.40;;
57341;SDS011;43175;51.002;18.316;2022-12-19T09:21:00;40.50;;;16.30;;
57341;SDS011;43175;51.002;18.316;2022-12-19T09:23:26;36.70;;;16.10;;
57341;SDS011;43175;51.002;18.316;2022-12-19T09:25:56;38.90;;;15.40;;
57341;SDS011;43175;51.002;18.316;2022-12-19T09:28:29;34.90;;;16.10;;
57341;SDS011;43175;51.002;18.316;2022-12-19T09:30:55;41.70;;;17.10;;
57341;SDS011;43175;51.002;18.316;2022-12-19T09:33:25;38.80;;;16.50;;
57341;SDS011;43175;51.002;18.316;2022-12-19T09:35:54;38.80;;;17.20;;
57341;SDS011;43175;51.002;18.316;2022-12-19T09:38:20;37.80;;;15.70;;
57341;SDS011;43175;51.002;18.316;2022-12-19T09:46:18;37.10;;;15.80;;
57341;SDS011;43175;51.002;18.316;2022-12-19T09:48:44;39.00;;;16.40;;
57341;SDS011;43175;51.002;18.316;2022-12-19T09:51:12;36.30;;;15.50;;
57341;SDS011;43175;51.002;18.316;2022-12-19T09:54:11;36.30;;;16.10;;
57341;SDS011;43175;51.002;18.316;2022-12-19T09:56:40;37.50;;;15.60;;
57341;SDS011;43175;51.002;18.316;2022-12-19T09:59:29;40.80;;;17.00;;
57341;SDS011;43175;51.002;18.316;2022-12-19T10:08:17;39.30;;;15.30;;
57341;SDS011;43175;51.002;18.316;2022-12-19T10:13:55;40.00;;;16.70;;
57341;SDS011;43175;51.002;18.316;2022-12-19T10:19:31;37.30;;;16.50;;
57341;SDS011;43175;51.002;18.316;2022-12-19T10:27:37;34.60;;;14.60;;
57341;SDS011;43175;51.002;18.316;2022-12-19T10:35:43;36.00;;;15.50;;
57341;SDS011;43175;51.002;18.316;2022-12-19T10:40:50;33.30;;;13.60;;
57341;SDS011;43175;51.002;18.316;2022-12-19T10:43:39;36.70;;;15.90;;
57341;SDS011;43175;51.002;18.316;2022-12-19T10:49:15;36.50;;;15.40;;
57341;SDS011;43175;51.002;18.316;2022-12-19T10:51:51;36.60;;;16.10;;
57341;SDS011;43175;51.002;18.316;2022-12-19T10:54:21;34.20;;;14.50;;
57341;SDS011;43175;51.002;18.316;2022-12-19T10:56:47;36.90;;;15.60;;
57341;SDS011;43175;51.002;18.316;2022-12-19T10:59:17;34.30;;;15.20;;
57341;SDS011;43175;51.002;18.316;2022-12-19T11:01:44;38.10;;;16.50;;
57341;SDS011;43175;51.002;18.316;2022-12-19T11:09:30;35.20;;;14.70;;
57341;SDS011;43175;51.002;18.316;2022-12-19T11:14:28;34.30;;;14.20;;
57341;SDS011;43175;51.002;18.316;2022-12-19T11:16:55;37.10;;;15.40;;
57341;SDS011;43175;51.002;18.316;2022-12-19T11:19:25;38.50;;;16.20;;
57341;SDS011;43175;51.002;18.316;2022-12-19T11:21:52;32.90;;;13.80;;
57341;SDS011;43175;51.002;18.316;2022-12-19T11:24:24;35.90;;;14.60;;
57341;SDS011;43175;51.002;18.316;2022-12-19T11:26:52;39.90;;;15.50;;
57341;SDS011;43175;51.002;18.316;2022-12-19T11:29:20;34.40;;;15.70;;
57341;SDS011;43175;51.002;18.316;2022-12-19T11:31:52;37.80;;;15.70;;
57341;SDS011;43175;51.002;18.316;2022-12-19T11:34:21;35.50;;;15.70;;
57341;SDS011;43175;51.002;18.316;2022-12-19T11:39:20;39.90;;;19.30;;
57341;SDS011;43175;51.002;18.316;2022-12-19T11:41:49;36.70;;;16.90;;
57341;SDS011;43175;51.002;18.316;2022-12-19T11:44:27;35.20;;;14.90;;
57341;SDS011;43175;51.002;18.316;2022-12-19T11:47:02;35.90;;;15.80;;
57341;SDS011;43175;51.002;18.316;2022-12-19T11:49:39;33.60;;;14.80;;
57341;SDS011;43175;51.002;18.316;2022-12-19T11:55:19;36.00;;;15.90;;
57341;SDS011;43175;51.002;18.316;2022-12-19T11:57:48;38.20;;;15.30;;
57341;SDS011;43175;51.002;18.316;2022-12-19T12:00:15;38.30;;;15.20;;
57341;SDS011;43175;51.002;18.316;2022-12-19T12:02:54;34.40;;;14.80;;
57341;SDS011;43175;51.002;18.316;2022-12-19T12:05:42;37.30;;;17.20;;
57341;SDS011;43175;51.002;18.316;2022-12-19T12:08:21;37.60;;;17.60;;
57341;SDS011;43175;51.002;18.316;2022-12-19T12:11:00;34.20;;;13.90;;
57341;SDS011;43175;51.002;18.316;2022-12-19T12:13:37;35.60;;;16.30;;
57341;SDS011;43175;51.002;18.316;2022-12-19T12:16:10;36.80;;;15.60;;
57341;SDS011;43175;51.002;18.316;2022-12-19T12:21:41;33.30;;;13.20;;
57341;SDS011;43175;51.002;18.316;2022-12-19T12:27:25;36.30;;;15.20;;
57341;SDS011;43175;51.002;18.316;2022-12-19T12:35:35;37.00;;;14.70;;
57341;SDS011;43175;51.002;18.316;2022-12-19T12:40:51;34.90;;;14.40;;
57341;SDS011;43175;51.002;18.316;2022-12-19T12:46:30;32.80;;;14.70;;
57341;SDS011;43175;51.002;18.316;2022-12-19T12:49:00;35.10;;;14.90;;
57341;SDS011;43175;51.002;18.316;2022-12-19T12:51:28;31.60;;;13.80;;
57341;SDS011;43175;51.002;18.316;2022-12-19T12:54:01;41.00;;;18.10;;
57341;SDS011;43175;51.002;18.316;2022-12-19T12:56:31;40.20;;;17.70;;
57341;SDS011;43175;51.002;18.316;2022-12-19T13:04:02;44.40;;;20.00;;
57341;SDS011;43175;51.002;18.316;2022-12-19T13:06:34;37.90;;;18.20;;
57341;SDS011;43175;51.002;18.316;2022-12-19T13:11:34;50.20;;;20.40;;
57341;SDS011;43175;51.002;18.316;2022-12-19T13:17:04;39.90;;;18.10;;
57341;SDS011;43175;51.002;18.316;2022-12-19T13:22:21;44.70;;;18.20;;
57341;SDS011;43175;51.002;18.316;2022-12-19T13:25:10;38.10;;;16.70;;
57341;SDS011;43175;51.002;18.316;2022-12-19T13:27:50;38.10;;;16.10;;
57341;SDS011;43175;51.002;18.316;2022-12-19T13:30:32;35.50;;;15.20;;
57341;SDS011;43175;51.002;18.316;2022-12-19T13:43:25;35.60;;;14.00;;
57341;SDS011;43175;51.002;18.316;2022-12-19T13:46:20;35.50;;;14.10;;
57341;SDS011;43175;51.002;18.316;2022-12-19T13:49:01;34.70;;;14.80;;
57341;SDS011;43175;51.002;18.316;2022-12-19T13:51:39;36.70;;;15.40;;
57341;SDS011;43175;51.002;18.316;2022-12-19T13:54:13;36.30;;;14.70;;
57341;SDS011;43175;51.002;18.316;2022-12-19T13:56:43;36.70;;;13.90;;
57341;SDS011;43175;51.002;18.316;2022-12-19T13:59:08;39.10;;;17.20;;
57341;SDS011;43175;51.002;18.316;2022-12-19T14:01:37;35.30;;;14.70;;
57341;SDS011;43175;51.002;18.316;2022-12-19T14:04:07;38.70;;;16.80;;
57341;SDS011;43175;51.002;18.316;2022-12-19T14:06:41;33.40;;;15.00;;
57341;SDS011;43175;51.002;18.316;2022-12-19T14:12:10;34.60;;;14.70;;
57341;SDS011;43175;51.002;18.316;2022-12-19T14:15:19;32.50;;;14.60;;
57341;SDS011;43175;51.002;18.316;2022-12-19T14:20:50;34.40;;;14.00;;
57341;SDS011;43175;51.002;18.316;2022-12-19T14:23:31;40.70;;;16.20;;
57341;SDS011;43175;51.002;18.316;2022-12-19T14:25:56;34.00;;;14.00;;
57341;SDS011;43175;51.002;18.316;2022-12-19T14:28:41;38.30;;;14.70;;
57341;SDS011;43175;51.002;18.316;2022-12-19T14:31:12;35.30;;;14.70;;
57341;SDS011;43175;51.002;18.316;2022-12-19T14:33:46;35.70;;;14.10;;
57341;SDS011;43175;51.002;18.316;2022-12-19T14:36:20;38.70;;;14.60;;
57341;SDS011;43175;51.002;18.316;2022-12-19T14:38:47;39.30;;;15.60;;
57341;SDS011;43175;51.002;18.316;2022-12-19T14:41:29;37.10;;;16.60;;
57341;SDS011;43175;51.002;18.316;2022-12-19T14:44:18;38.50;;;15.70;;
57341;SDS011;43175;51.002;18.316;2022-12-19T14:46:56;40.40;;;16.70;;
57341;SDS011;43175;51.002;18.316;2022-12-19T14:49:25;39.10;;;16.20;;
57341;SDS011;43175;51.002;18.316;2022-12-19T14:51:54;35.00;;;15.20;;
57341;SDS011;43175;51.002;18.316;2022-12-19T14:54:20;41.10;;;17.30;;
57341;SDS011;43175;51.002;18.316;2022-12-19T15:04:34;38.80;;;16.80;;
57341;SDS011;43175;51.002;18.316;2022-12-19T15:07:06;39.10;;;16.30;;
57341;SDS011;43175;51.002;18.316;2022-12-19T15:09:37;40.80;;;16.20;;
57341;SDS011;43175;51.002;18.316;2022-12-19T15:12:12;39.40;;;16.00;;
57341;SDS011;43175;51.002;18.316;2022-12-19T15:15:02;39.30;;;16.90;;
57341;SDS011;43175;51.002;18.316;2022-12-19T15:17:45;37.50;;;15.00;;
57341;SDS011;43175;51.002;18.316;2022-12-19T15:20:12;46.30;;;18.90;;
57341;SDS011;43175;51.002;18.316;2022-12-19T15:22:38;44.70;;;18.10;;
57341;SDS011;43175;51.002;18.316;2022-12-19T15:25:04;45.00;;;19.60;;
57341;SDS011;43175;51.002;18.316;2022-12-19T15:27:30;41.00;;;17.60;;
57341;SDS011;43175;51.002;18.316;2022-12-19T15:29:56;46.00;;;20.00;;
57341;SDS011;43175;51.002;18.316;2022-12-19T15:32:21;39.50;;;16.00;;
57341;SDS011;43175;51.002;18.316;2022-12-19T15:34:47;41.90;;;18.10;;
57341;SDS011;43175;51.002;18.316;2022-12-19T15:37:13;43.50;;;17.90;;
57341;SDS011;43175;51.002;18.316;2022-12-19T15:39:40;40.20;;;18.00;;
57341;SDS011;43175;51.002;18.316;2022-12-19T15:42:10;41.70;;;17.90;;
57341;SDS011;43175;51.002;18.316;2022-12-19T15:44:41;43.30;;;17.60;;
57341;SDS011;43175;51.002;18.316;2022-12-19T15:50:00;45.90;;;17.20;;
57341;SDS011;43175;51.002;18.316;2022-12-19T15:52:28;43.00;;;17.10;;
57341;SDS011;43175;51.002;18.316;2022-12-19T15:54:54;38.20;;;16.80;;
57341;SDS011;43175;51.002;18.316;2022-12-19T15:59:51;39.70;;;17.80;;
57341;SDS011;43175;51.002;18.316;2022-12-19T16:02:19;44.00;;;18.60;;
57341;SDS011;43175;51.002;18.316;2022-12-19T16:04:48;41.80;;;18.30;;
57341;SDS011;43175;51.002;18.316;2022-12-19T16:07:18;42.20;;;16.80;;
57341;SDS011;43175;51.002;18.316;2022-12-19T16:09:46;40.70;;;18.40;;
57341;SDS011;43175;51.002;18.316;2022-12-19T16:12:17;40.70;;;17.20;;
57341;SDS011;43175;51.002;18.316;2022-12-19T16:14:44;43.90;;;19.10;;
57341;SDS011;43175;51.002;18.316;2022-12-19T16:17:12;42.70;;;18.00;;
57341;SDS011;43175;51.002;18.316;2022-12-19T16:19:43;42.70;;;18.70;;
57341;SDS011;43175;51.002;18.316;2022-12-19T16:22:16;38.00;;;17.00;;
57341;SDS011;43175;51.002;18.316;2022-12-19T16:24:43;41.90;;;18.80;;
57341;SDS011;43175;51.002;18.316;2022-12-19T16:27:09;41.90;;;18.10;;
57341;SDS011;43175;51.002;18.316;2022-12-19T16:29:42;45.40;;;18.80;;
57341;SDS011;43175;51.002;18.316;2022-12-19T16:32:12;37.40;;;16.70;;
57341;SDS011;43175;51.002;18.316;2022-12-19T16:34:38;39.50;;;17.40;;
57341;SDS011;43175;51.002;18.316;2022-12-19T16:37:03;39.00;;;17.40;;
57341;SDS011;43175;51.002;18.316;2022-12-19T16:39:29;39.30;;;18.80;;
57341;SDS011;43175;51.002;18.316;2022-12-19T16:41:54;44.00;;;18.90;;